createdAt,value
2022-12-17T00:02:38.633Z,90.77
2022-12-17T00:05:29.087Z,91.00
2022-12-17T00:08:19.381Z,91.08
2022-12-17T00:11:09.898Z,91.68
2022-12-17T00:14:00.484Z,91.80
2022-12-17T00:16:51.101Z,91.71
2022-12-17T00:19:42.243Z,91.72
2022-12-17T00:22:52.446Z,91.59
2022-12-17T00:25:44.675Z,91.47
2022-12-17T00:28:35.411Z,91.57
2022-12-17T00:31:26.166Z,91.80
2022-12-17T00:34:16.467Z,92.37
2022-12-17T00:37:07.022Z,92.17
2022-12-17T00:39:59.485Z,92.14
2022-12-17T00:42:50.276Z,92.26
2022-12-17T00:45:40.884Z,92.54
2022-12-17T00:48:31.390Z,92.74
2022-12-17T00:51:22.018Z,92.72
2022-12-17T00:54:12.345Z,92.02
2022-12-17T00:57:02.669Z,91.09
2022-12-17T00:59:53.453Z,91.06
2022-12-17T01:02:45.224Z,91.80
2022-12-17T01:05:36.160Z,92.09
2022-12-17T01:08:33.600Z,92.08
2022-12-17T01:11:26.865Z,92.04
2022-12-17T01:14:17.406Z,91.80
2022-12-17T01:17:08.005Z,91.90
2022-12-17T01:19:58.643Z,91.96
2022-12-17T01:22:49.081Z,91.86
2022-12-17T01:25:39.492Z,92.09
2022-12-17T01:28:30.419Z,92.05
2022-12-17T01:31:20.962Z,92.24
2022-12-17T01:34:11.296Z,92.13
2022-12-17T01:37:01.827Z,92.19
2022-12-17T01:39:52.226Z,92.08
2022-12-17T01:42:43.036Z,92.54
2022-12-17T01:45:34.015Z,92.27
2022-12-17T01:48:32.526Z,92.10
2022-12-17T01:51:23.832Z,92.44
2022-12-17T01:54:14.708Z,92.66
2022-12-17T01:57:06.186Z,92.52
2022-12-17T02:00:28.122Z,91.80
2022-12-17T02:03:23.915Z,92.00
2022-12-17T02:06:43.689Z,91.49
2022-12-17T02:10:01.431Z,92.15
2022-12-17T02:13:17.602Z,92.14
2022-12-17T02:16:20.573Z,92.49
2022-12-17T02:19:19.973Z,92.83
2022-12-17T02:22:16.874Z,92.62
2022-12-17T02:25:22.705Z,92.48
2022-12-17T02:28:13.459Z,92.98
2022-12-17T02:31:04.364Z,93.23
2022-12-17T02:33:54.898Z,92.80
2022-12-17T02:36:46.197Z,92.08
2022-12-17T02:39:36.785Z,91.44
2022-12-17T02:42:27.059Z,92.01
2022-12-17T02:45:18.015Z,92.17
2022-12-17T02:48:10.934Z,92.08
2022-12-17T02:51:01.862Z,92.10
2022-12-17T02:53:53.709Z,92.14
2022-12-17T02:56:44.125Z,92.27
2022-12-17T02:59:34.940Z,92.89
2022-12-17T03:02:25.718Z,93.08
2022-12-17T03:05:43.428Z,92.87
2022-12-17T03:08:26.541Z,92.74
2022-12-17T03:11:17.179Z,92.71
2022-12-17T03:14:07.576Z,93.01
2022-12-17T03:16:58.219Z,93.25
2022-12-17T03:19:48.860Z,93.01
2022-12-17T03:22:39.111Z,93.24
2022-12-17T03:25:29.667Z,93.46
2022-12-17T03:28:29.827Z,93.09
2022-12-17T03:31:20.191Z,93.48
2022-12-17T03:34:11.098Z,93.58
2022-12-17T03:37:01.696Z,93.48
2022-12-17T03:39:51.954Z,93.38
2022-12-17T03:42:42.225Z,92.96
2022-12-17T03:45:32.839Z,92.94
2022-12-17T03:48:32.429Z,93.31
2022-12-17T03:51:23.171Z,93.36
2022-12-17T03:54:13.892Z,93.07
2022-12-17T03:57:04.425Z,93.05
2022-12-17T03:59:54.985Z,93.25
2022-12-17T04:02:45.561Z,93.41
2022-12-17T04:05:35.977Z,93.41
2022-12-17T04:08:26.490Z,92.94
2022-12-17T04:11:16.991Z,92.99
2022-12-17T04:14:07.738Z,92.64
2022-12-17T04:16:58.228Z,92.85
2022-12-17T04:19:48.766Z,92.98
2022-12-17T04:22:39.335Z,93.24
2022-12-17T04:25:29.799Z,93.45
2022-12-17T04:28:20.606Z,93.38
2022-12-17T04:31:10.927Z,93.25
2022-12-17T04:34:09.043Z,92.67
2022-12-17T04:36:59.914Z,92.85
2022-12-17T04:39:50.482Z,92.32
2022-12-17T04:42:41.439Z,92.56
2022-12-17T04:45:32.063Z,92.02
2022-12-17T04:48:25.675Z,92.36
2022-12-17T04:51:16.343Z,92.24
2022-12-17T04:54:06.959Z,92.41
2022-12-17T04:56:57.113Z,92.05
2022-12-17T04:59:47.247Z,92.50
2022-12-17T05:02:57.776Z,92.70
2022-12-17T05:05:48.259Z,92.76
2022-12-17T05:08:41.521Z,92.14
2022-12-17T05:11:32.660Z,92.22
2022-12-17T05:14:22.968Z,92.55
2022-12-17T05:17:13.677Z,92.51
2022-12-17T05:20:04.632Z,92.86
2022-12-17T05:22:55.122Z,92.99
2022-12-17T05:25:45.426Z,92.80
2022-12-17T05:28:36.146Z,92.46
2022-12-17T05:31:27.038Z,93.59
2022-12-17T05:34:22.340Z,93.77
2022-12-17T05:37:12.711Z,93.97
2022-12-17T05:40:05.467Z,93.93
2022-12-17T05:42:59.551Z,93.33
2022-12-17T05:45:50.064Z,93.01
2022-12-17T05:48:40.474Z,94.29
2022-12-17T05:51:34.580Z,94.34
2022-12-17T05:54:29.017Z,94.70
2022-12-17T05:57:19.543Z,95.00
2022-12-17T06:00:10.217Z,95.18
2022-12-17T06:03:00.641Z,94.56
2022-12-17T06:05:51.071Z,94.70
2022-12-17T06:08:41.546Z,94.61
2022-12-17T06:11:32.180Z,94.79
2022-12-17T06:14:22.408Z,95.01
2022-12-17T06:17:14.198Z,95.04
2022-12-17T06:20:05.072Z,94.81
2022-12-17T06:22:55.527Z,94.17
2022-12-17T06:25:46.233Z,94.49
2022-12-17T06:28:36.805Z,94.75
2022-12-17T06:31:27.028Z,93.99
2022-12-17T06:34:19.241Z,94.44
2022-12-17T06:37:09.632Z,93.90
2022-12-17T06:40:00.179Z,93.62
2022-12-17T06:42:50.493Z,93.84
2022-12-17T06:45:41.036Z,94.30
2022-12-17T06:48:31.644Z,94.35
2022-12-17T06:51:22.319Z,93.64
2022-12-17T06:54:13.135Z,93.58
2022-12-17T06:57:03.533Z,92.80
2022-12-17T06:59:54.341Z,93.32
2022-12-17T07:02:45.037Z,93.84
2022-12-17T07:05:35.561Z,94.43
2022-12-17T07:08:26.373Z,95.12
2022-12-17T07:11:21.275Z,95.24
2022-12-17T07:14:11.640Z,94.56
2022-12-17T07:17:02.494Z,94.23
2022-12-17T07:19:53.180Z,94.26
2022-12-17T07:22:43.780Z,94.78
2022-12-17T07:25:48.205Z,94.75
2022-12-17T07:28:38.850Z,95.22
2022-12-17T07:31:29.442Z,94.86
2022-12-17T07:34:19.826Z,94.89
2022-12-17T07:37:10.152Z,93.98
2022-12-17T07:40:00.763Z,94.10
2022-12-17T07:42:51.495Z,94.65
2022-12-17T07:45:42.229Z,94.76
2022-12-17T07:48:33.110Z,93.97
2022-12-17T07:51:23.684Z,93.93
2022-12-17T07:54:14.204Z,92.68
2022-12-17T07:57:04.635Z,93.18
2022-12-17T08:00:11.676Z,94.35
2022-12-17T08:03:02.192Z,94.51
2022-12-17T08:05:52.577Z,95.04
2022-12-17T08:08:43.085Z,94.39
2022-12-17T08:11:33.384Z,94.62
2022-12-17T08:14:23.852Z,94.29
2022-12-17T08:17:14.681Z,94.08
2022-12-17T08:20:06.102Z,93.55
2022-12-17T08:23:16.454Z,92.98
2022-12-17T08:26:07.300Z,92.03
2022-12-17T08:28:58.144Z,92.28
2022-12-17T08:31:48.508Z,92.50
2022-12-17T08:34:39.172Z,93.06
2022-12-17T08:37:29.977Z,93.59
2022-12-17T08:40:20.455Z,92.62
2022-12-17T08:43:16.735Z,93.45
2022-12-17T08:46:09.504Z,93.21
2022-12-17T08:49:00.324Z,92.90
2022-12-17T08:51:50.552Z,93.21
2022-12-17T08:54:51.779Z,92.97
2022-12-17T08:57:42.459Z,93.47
2022-12-17T09:00:33.625Z,92.73
2022-12-17T09:03:24.561Z,93.56
2022-12-17T09:06:14.905Z,93.04
2022-12-17T09:09:05.786Z,93.65
2022-12-17T09:11:56.309Z,92.30
2022-12-17T09:14:46.525Z,92.59
2022-12-17T09:17:36.879Z,92.76
2022-12-17T09:20:29.636Z,92.48
2022-12-17T09:23:20.303Z,91.48
2022-12-17T09:26:15.527Z,90.81
2022-12-17T09:29:06.146Z,90.43
2022-12-17T09:31:56.628Z,90.51
2022-12-17T09:34:47.072Z,89.51
2022-12-17T09:37:37.634Z,89.65
2022-12-17T09:40:36.703Z,88.28
2022-12-17T09:43:53.762Z,88.48
2022-12-17T09:46:54.593Z,88.44
2022-12-17T09:49:47.406Z,89.69
2022-12-17T09:53:00.099Z,89.73
2022-12-17T09:56:14.106Z,90.28
2022-12-17T09:59:04.893Z,91.16
2022-12-17T10:02:00.043Z,89.92
2022-12-17T10:05:02.964Z,89.80
2022-12-17T10:07:57.441Z,88.31
2022-12-17T10:10:51.350Z,88.20
2022-12-17T10:13:42.277Z,90.35
2022-12-17T10:16:52.264Z,91.25
2022-12-17T10:19:55.211Z,93.13
2022-12-17T10:22:46.454Z,92.29
2022-12-17T10:25:41.904Z,91.82
2022-12-17T10:28:43.872Z,92.58
2022-12-17T10:31:39.317Z,91.93
2022-12-17T10:34:37.335Z,92.33
2022-12-17T10:37:38.758Z,92.07
2022-12-17T10:41:07.624Z,91.41
2022-12-17T10:43:59.055Z,91.71
2022-12-17T10:46:53.024Z,91.20
2022-12-17T10:49:44.528Z,90.44
2022-12-17T10:52:47.681Z,89.72
2022-12-17T10:55:46.428Z,90.50
2022-12-17T10:58:48.011Z,90.61
2022-12-17T11:01:45.671Z,89.93
2022-12-17T11:04:56.315Z,89.91
2022-12-17T11:08:01.884Z,89.11
2022-12-17T11:11:01.048Z,88.19
2022-12-17T11:13:55.881Z,88.95
2022-12-17T11:17:14.535Z,88.17
2022-12-17T11:20:39.011Z,89.27
2022-12-17T11:23:38.617Z,89.60
2022-12-17T11:26:33.753Z,89.17
2022-12-17T11:29:24.878Z,89.53
2022-12-17T11:32:36.432Z,90.04
2022-12-17T11:35:54.295Z,89.50
2022-12-17T11:38:58.105Z,89.59
2022-12-17T11:42:27.200Z,88.98
2022-12-17T11:46:04.440Z,88.01
2022-12-17T11:49:27.719Z,87.82
2022-12-17T11:52:33.020Z,87.25
2022-12-17T11:55:40.143Z,86.09
2022-12-17T11:59:04.906Z,86.45
2022-12-17T12:02:23.669Z,85.92
2022-12-17T12:05:56.702Z,85.52
2022-12-17T12:08:53.450Z,84.72
2022-12-17T12:11:59.113Z,85.96
2022-12-17T12:15:07.885Z,85.78
2022-12-17T12:18:21.854Z,86.43
2022-12-17T12:21:40.154Z,86.00
2022-12-17T12:24:57.421Z,86.41
2022-12-17T12:28:07.157Z,87.58
2022-12-17T12:31:23.104Z,87.68
2022-12-17T12:34:23.549Z,87.56
2022-12-17T12:37:18.645Z,86.14
2022-12-17T12:40:09.057Z,86.79
2022-12-17T12:43:12.938Z,87.94
2022-12-17T12:46:17.382Z,89.40
2022-12-17T12:49:36.531Z,88.57
2022-12-17T12:52:37.481Z,88.39
2022-12-17T12:55:28.343Z,88.88
2022-12-17T12:58:50.052Z,89.52
2022-12-17T13:01:53.334Z,90.33
2022-12-17T13:04:54.954Z,89.85
2022-12-17T13:07:30.091Z,89.46
2022-12-17T13:10:03.116Z,88.94
2022-12-17T13:12:45.556Z,89.78
2022-12-17T13:15:30.153Z,90.22
2022-12-17T13:18:32.409Z,90.36
2022-12-17T13:21:29.677Z,90.26
2022-12-17T13:24:12.136Z,90.08
2022-12-17T13:26:45.122Z,90.83
2022-12-17T13:29:34.754Z,92.21
2022-12-17T13:32:31.538Z,92.76
2022-12-17T13:35:29.435Z,92.55
2022-12-17T13:38:34.395Z,93.69
2022-12-17T13:41:17.239Z,92.74
2022-12-17T13:43:53.732Z,92.17
2022-12-17T13:46:48.084Z,91.78
2022-12-17T13:49:29.918Z,91.69
2022-12-17T13:52:14.848Z,91.59
2022-12-17T13:54:46.998Z,92.26
2022-12-17T13:57:25.327Z,92.25
2022-12-17T13:59:59.902Z,92.13
2022-12-17T14:02:41.870Z,91.58
2022-12-17T14:05:42.480Z,91.86
2022-12-17T14:08:18.694Z,92.04
2022-12-17T14:11:13.740Z,91.71
2022-12-17T14:13:48.638Z,91.72
2022-12-17T14:16:21.931Z,92.17
2022-12-17T14:18:57.336Z,92.44
2022-12-17T14:21:30.309Z,92.52
2022-12-17T14:24:02.340Z,91.82
2022-12-17T14:26:34.325Z,90.53
2022-12-17T14:29:14.272Z,91.87
2022-12-17T14:32:02.009Z,92.55
2022-12-17T14:34:43.281Z,92.27
2022-12-17T14:37:23.125Z,92.28
2022-12-17T14:40:04.775Z,92.43
2022-12-17T14:42:37.415Z,92.89
2022-12-17T14:45:15.345Z,93.12
2022-12-17T14:48:04.560Z,93.42
2022-12-17T14:50:37.744Z,93.38
2022-12-17T14:53:27.696Z,93.67
2022-12-17T14:55:59.603Z,93.74
2022-12-17T14:58:31.559Z,93.51
2022-12-17T15:01:14.121Z,92.36
2022-12-17T15:03:47.024Z,92.38
2022-12-17T15:06:20.358Z,92.06
2022-12-17T15:08:53.545Z,92.40
2022-12-17T15:11:25.581Z,92.66
2022-12-17T15:13:57.603Z,92.58
2022-12-17T15:16:29.749Z,92.56
2022-12-17T15:19:01.834Z,93.19
2022-12-17T15:21:33.874Z,94.47
2022-12-17T15:24:12.095Z,95.09
2022-12-17T15:26:44.175Z,96.11
2022-12-17T15:29:16.163Z,95.97
2022-12-17T15:31:48.134Z,96.20
2022-12-17T15:34:20.159Z,95.98
2022-12-17T15:36:52.081Z,95.91
2022-12-17T15:39:24.095Z,96.15
2022-12-17T15:42:14.484Z,96.10
2022-12-17T15:44:46.543Z,95.66
2022-12-17T15:47:18.507Z,95.40
2022-12-17T15:49:50.503Z,95.29
2022-12-17T15:52:22.470Z,95.19
2022-12-17T15:54:54.436Z,94.41
2022-12-17T15:57:26.576Z,94.25
2022-12-17T15:59:58.582Z,93.89
2022-12-17T16:02:30.813Z,93.68
2022-12-17T16:05:03.104Z,93.08
2022-12-17T16:07:35.496Z,92.46
2022-12-17T16:10:07.920Z,93.26
2022-12-17T16:12:39.953Z,93.31
2022-12-17T16:15:12.695Z,93.20
2022-12-17T16:17:44.644Z,92.15
2022-12-17T16:20:16.750Z,92.13
2022-12-17T16:22:48.797Z,91.79
2022-12-17T16:25:20.768Z,91.80
2022-12-17T16:27:52.719Z,92.18
2022-12-17T16:30:24.720Z,93.79
2022-12-17T16:32:59.667Z,93.75
2022-12-17T16:35:31.677Z,93.51
2022-12-17T16:38:03.819Z,93.08
2022-12-17T16:40:35.773Z,93.01
2022-12-17T16:43:07.726Z,93.47
2022-12-17T16:45:51.248Z,94.09
2022-12-17T16:48:23.342Z,94.00
2022-12-17T16:50:55.474Z,93.36
2022-12-17T16:53:27.449Z,93.78
2022-12-17T16:55:59.429Z,93.08
2022-12-17T16:58:31.365Z,92.88
2022-12-17T17:01:03.678Z,93.60
2022-12-17T17:03:42.767Z,93.94
2022-12-17T17:06:17.038Z,93.84
2022-12-17T17:08:49.591Z,93.27
2022-12-17T17:11:25.621Z,93.05
2022-12-17T17:13:57.732Z,93.47
2022-12-17T17:16:30.471Z,93.11
2022-12-17T17:19:03.373Z,93.74
2022-12-17T17:21:41.520Z,94.48
2022-12-17T17:24:21.437Z,93.98
2022-12-17T17:26:55.586Z,93.85
2022-12-17T17:29:27.578Z,93.56
2022-12-17T17:32:15.101Z,94.55
2022-12-17T17:34:47.112Z,94.58
2022-12-17T17:37:19.363Z,95.04
2022-12-17T17:39:51.343Z,95.82
2022-12-17T17:42:23.420Z,95.57
2022-12-17T17:44:55.401Z,94.72
2022-12-17T17:47:30.160Z,94.91
2022-12-17T17:50:02.187Z,94.99
2022-12-17T17:52:34.157Z,94.54
2022-12-17T17:55:07.019Z,94.60
2022-12-17T17:57:39.046Z,94.74
2022-12-17T18:00:11.942Z,94.71
2022-12-17T18:02:43.990Z,93.59
2022-12-17T18:05:16.187Z,94.22
2022-12-17T18:07:48.175Z,94.40
2022-12-17T18:10:20.230Z,94.05
2022-12-17T18:13:10.570Z,93.88
2022-12-17T18:15:42.527Z,93.56
2022-12-17T18:18:14.959Z,93.90
2022-12-17T18:20:46.937Z,94.51
2022-12-17T18:23:18.906Z,94.41
2022-12-17T18:25:50.845Z,94.00
2022-12-17T18:28:22.860Z,94.34
2022-12-17T18:30:55.316Z,94.20
2022-12-17T18:33:27.302Z,94.51
2022-12-17T18:35:59.241Z,94.10
2022-12-17T18:38:31.251Z,93.75
2022-12-17T18:41:34.685Z,93.90
2022-12-17T18:44:07.330Z,94.15
2022-12-17T18:46:39.465Z,93.86
2022-12-17T18:49:14.961Z,93.42
2022-12-17T18:51:49.065Z,93.23
2022-12-17T18:54:28.063Z,92.53
2022-12-17T18:57:01.568Z,92.57
2022-12-17T18:59:34.698Z,92.44
2022-12-17T19:02:10.987Z,91.65
2022-12-17T19:04:43.352Z,91.68
2022-12-17T19:07:15.326Z,92.45
2022-12-17T19:09:47.538Z,91.65
2022-12-17T19:12:19.492Z,91.73
2022-12-17T19:14:51.499Z,92.22
2022-12-17T19:17:23.444Z,92.90
2022-12-17T19:19:55.470Z,92.64
2022-12-17T19:22:27.583Z,92.28
2022-12-17T19:24:59.614Z,92.00
2022-12-17T19:27:31.635Z,91.98
2022-12-17T19:30:04.313Z,92.38
2022-12-17T19:32:36.344Z,91.85
2022-12-17T19:35:08.666Z,91.31
2022-12-17T19:37:40.650Z,91.07
2022-12-17T19:40:13.386Z,91.05
2022-12-17T19:42:46.489Z,91.38
2022-12-17T19:45:18.510Z,91.83
2022-12-17T19:47:50.443Z,91.43
2022-12-17T19:50:22.389Z,91.31
2022-12-17T19:52:54.313Z,90.47
2022-12-17T19:55:30.015Z,90.38
2022-12-17T19:58:02.012Z,90.17
2022-12-17T20:00:35.805Z,90.12
2022-12-17T20:03:07.925Z,91.13
2022-12-17T20:05:45.091Z,91.31
2022-12-17T20:08:22.222Z,90.51
2022-12-17T20:10:54.498Z,90.83
2022-12-17T20:13:26.690Z,91.17
2022-12-17T20:16:04.053Z,91.65
2022-12-17T20:18:36.213Z,91.13
2022-12-17T20:21:08.303Z,91.11
2022-12-17T20:23:40.484Z,90.46
2022-12-17T20:26:12.502Z,90.54
2022-12-17T20:28:45.995Z,90.72
2022-12-17T20:31:18.605Z,90.97
2022-12-17T20:33:50.717Z,90.98
2022-12-17T20:36:23.685Z,90.40
2022-12-17T20:38:55.896Z,91.19
2022-12-17T20:41:30.647Z,90.55
2022-12-17T20:44:10.815Z,90.26
2022-12-17T20:46:43.778Z,90.26
2022-12-17T20:49:15.895Z,89.53
2022-12-17T20:51:47.924Z,89.70
2022-12-17T20:54:19.910Z,89.81
2022-12-17T20:56:51.953Z,89.90
2022-12-17T20:59:23.986Z,90.14
2022-12-17T21:01:56.612Z,90.74
2022-12-17T21:04:28.732Z,90.18
2022-12-17T21:07:00.784Z,90.35
2022-12-17T21:09:32.867Z,89.94
2022-12-17T21:12:05.102Z,89.25
2022-12-17T21:14:37.499Z,90.01
2022-12-17T21:17:09.609Z,89.95
2022-12-17T21:19:41.837Z,89.97
2022-12-17T21:22:13.807Z,89.87
2022-12-17T21:24:45.769Z,89.26
2022-12-17T21:27:17.746Z,89.37
2022-12-17T21:29:49.678Z,88.74
2022-12-17T21:32:21.737Z,89.72
2022-12-17T21:34:54.168Z,89.62
2022-12-17T21:37:26.233Z,89.25
2022-12-17T21:39:59.853Z,89.80
2022-12-17T21:42:50.534Z,89.93
2022-12-17T21:45:22.510Z,90.25
2022-12-17T21:47:54.725Z,90.02
2022-12-17T21:50:26.668Z,90.17
2022-12-17T21:52:59.528Z,90.66
2022-12-17T21:55:31.516Z,90.64
2022-12-17T21:58:05.142Z,90.12
2022-12-17T22:00:37.211Z,90.74
2022-12-17T22:03:09.488Z,91.04
2022-12-17T22:05:42.128Z,90.40
2022-12-17T22:08:17.188Z,90.46
2022-12-17T22:10:52.168Z,90.86
2022-12-17T22:13:43.728Z,90.64
2022-12-17T22:16:16.029Z,90.39
2022-12-17T22:18:48.153Z,90.10
2022-12-17T22:21:20.881Z,89.54
2022-12-17T22:23:53.274Z,89.19
2022-12-17T22:26:26.002Z,89.32
2022-12-17T22:28:58.087Z,90.13
2022-12-17T22:31:48.961Z,90.31
2022-12-17T22:35:38.764Z,90.31
2022-12-17T22:39:39.674Z,89.84
2022-12-17T22:44:31.889Z,89.58
2022-12-17T22:44:41.943Z,88.92
2022-12-17T22:46:14.891Z,88.98
2022-12-17T22:48:47.278Z,90.10
2022-12-17T22:51:25.456Z,89.38
2022-12-17T22:54:05.445Z,89.83
2022-12-17T22:57:34.426Z,89.75
2022-12-17T22:59:32.596Z,90.09
2022-12-17T23:02:04.738Z,89.37
2022-12-17T23:04:37.145Z,89.18
2022-12-17T23:07:09.273Z,89.10
2022-12-17T23:09:41.236Z,88.48
2022-12-17T23:12:31.902Z,89.15
2022-12-17T23:15:04.393Z,88.35
2022-12-17T23:17:36.416Z,88.51
2022-12-17T23:20:09.413Z,88.33
2022-12-17T23:22:41.496Z,88.43
2022-12-17T23:25:14.991Z,88.89
2022-12-17T23:27:48.359Z,88.89
2022-12-17T23:30:20.866Z,88.29
2022-12-17T23:32:53.063Z,89.04
2022-12-17T23:35:25.012Z,89.46
2022-12-17T23:37:57.250Z,89.49
2022-12-17T23:40:29.237Z,89.41
2022-12-17T23:43:01.239Z,89.22
2022-12-17T23:45:33.186Z,89.08
2022-12-17T23:48:05.438Z,88.80
2022-12-17T23:50:37.402Z,88.39
2022-12-17T23:53:09.462Z,87.91
2022-12-17T23:55:41.390Z,87.30
2022-12-17T23:58:13.365Z,87.58
